Aviation Digital Data Service (ADDS)

Output produced by TAFs form (0121 UTC 27 April 2017)
found at http://www.aviationweather.gov/adds/tafs/
 
METAR text: RJTI 270100Z 05012KT 020V080 9999 SCT015 BKN070 13/08 Q1005
Conditions at: RJTI (TOKYO HELIPORT , JP) observed 0100 UTC 27 April 2017
Temperature: 13.0°C (55°F)
Dewpoint: 8.0°C (46°F) [RH = 72%]
Pressure (altimeter): 29.68 inches Hg (1005.0 mb)
Winds: from the NE (50 degrees) at 14 MPH (12 knots; 6.2 m/s)
Visibility: 6 or more miles (10+ km)
Ceiling: 7000 feet AGL
Clouds: scattered clouds at 1500 feet AGL
broken clouds at 7000 feet AGL
Weather: no significant weather observed at this time